Time;durP1;ratioP1;P1;durP2;ratioP2;P2;SDS_P1;SDS_P2;PMS_P1;PMS_P2;Temp;Humidity;BMP_temperature;BMP_pressure;BME280_temperature;BME280_humidity;BME280_pressure;Samples;Min_cycle;Max_cycle;Signal;HPM_P1;HPM_P2
2023/09/18 00:00:42;;;;;;;7.18;4.97;;;20.20;99.90;;;;;;5110138;28;20034;-70
2023/09/18 00:03:08;;;;;;;8.40;5.30;;;20.20;99.90;;;;;;5097193;28;20823;-71
2023/09/18 00:05:34;;;;;;;10.63;5.60;;;20.10;99.90;;;;;;5106840;28;20031;-71
2023/09/18 00:08:01;;;;;;;11.10;5.85;;;20.20;99.90;;;;;;5107344;28;20055;-70
2023/09/18 00:10:28;;;;;;;8.75;5.63;;;20.30;99.90;;;;;;5099220;28;20441;-71
2023/09/18 00:12:54;;;;;;;9.65;5.93;;;20.40;99.90;;;;;;5095284;28;20085;-71
2023/09/18 00:15:20;;;;;;;7.70;5.47;;;20.40;99.90;;;;;;5084290;28;20023;-70
2023/09/18 00:17:46;;;;;;;9.00;5.53;;;20.00;99.90;;;;;;5105824;28;20161;-70
2023/09/18 00:20:11;;;;;;;8.73;5.70;;;19.70;99.90;;;;;;5106387;28;20642;-70
2023/09/18 00:22:37;;;;;;;9.85;5.80;;;19.70;99.90;;;;;;5109923;28;20031;-69
2023/09/18 00:25:03;;;;;;;9.38;5.72;;;19.80;99.90;;;;;;5106411;28;20106;-69
2023/09/18 00:27:29;;;;;;;9.05;5.38;;;19.60;99.90;;;;;;5108175;28;20028;-69
2023/09/18 00:29:55;;;;;;;8.27;5.15;;;19.50;99.90;;;;;;5105586;28;20028;-69
2023/09/18 00:32:21;;;;;;;9.60;5.63;;;19.50;99.90;;;;;;5109772;28;20062;-69
2023/09/18 00:34:46;;;;;;;10.35;6.00;;;19.40;99.90;;;;;;5106349;28;20035;-69
2023/09/18 00:37:12;;;;;;;9.75;5.45;;;19.40;99.90;;;;;;5107640;28;20027;-69
2023/09/18 00:39:38;;;;;;;8.68;6.05;;;19.40;99.90;;;;;;5108950;28;20080;-69
2023/09/18 00:42:04;;;;;;;9.77;5.75;;;19.40;99.90;;;;;;5106694;28;20032;-70
2023/09/18 00:44:30;;;;;;;10.80;5.60;;;19.40;99.90;;;;;;5107143;28;20030;-70
2023/09/18 00:46:56;;;;;;;8.65;6.05;;;19.30;99.90;;;;;;5108555;28;20471;-70
2023/09/18 00:49:24;;;;;;;7.78;5.05;;;19.10;99.90;;;;;;5109687;28;20055;-69
2023/09/18 00:51:50;;;;;;;12.57;5.55;;;19.20;99.90;;;;;;5103348;28;20027;-69
2023/09/18 00:54:18;;;;;;;8.82;5.88;;;19.20;99.90;;;;;;5104191;27;20088;-70
2023/09/18 00:56:46;;;;;;;10.55;5.88;;;19.20;99.90;;;;;;5109483;28;20031;-70
2023/09/18 00:59:12;;;;;;;11.32;5.32;;;19.30;99.90;;;;;;5106908;28;20498;-70
2023/09/18 01:01:39;;;;;;;8.18;5.22;;;19.20;99.90;;;;;;5107084;28;20024;-70
2023/09/18 01:04:05;;;;;;;9.45;5.70;;;19.00;99.90;;;;;;5106370;28;20031;-70
2023/09/18 01:06:30;;;;;;;13.88;5.70;;;19.10;99.90;;;;;;5104909;28;20024;-70
2023/09/18 01:08:56;;;;;;;9.85;5.45;;;19.10;99.90;;;;;;5104284;28;20039;-69
2023/09/18 01:11:37;;;;;;;8.02;5.78;;;19.00;99.90;;;;;;5108104;28;20046;-70
2023/09/18 01:14:03;;;;;;;7.63;5.53;;;18.70;99.90;;;;;;5102918;28;20036;-70
2023/09/18 01:16:45;;;;;;;9.45;5.35;;;18.60;99.90;;;;;;5108509;28;20498;-70
2023/09/18 01:19:11;;;;;;;8.02;5.22;;;18.60;99.90;;;;;;5104671;28;20036;-69
2023/09/18 01:21:37;;;;;;;10.65;5.60;;;18.60;99.90;;;;;;5103222;28;20035;-69
2023/09/18 01:24:03;;;;;;;10.15;5.78;;;18.60;99.90;;;;;;5104403;28;20035;-69
2023/09/18 01:26:28;;;;;;;9.90;5.47;;;18.60;99.90;;;;;;5107446;28;20031;-70
2023/09/18 01:28:54;;;;;;;7.75;5.40;;;18.60;99.90;;;;;;5106600;28;20065;-69
2023/09/18 01:31:20;;;;;;;10.90;5.60;;;18.60;99.90;;;;;;5104497;28;20032;-70
2023/09/18 01:33:47;;;;;;;8.50;5.68;;;18.60;99.90;;;;;;5105120;28;20023;-70
2023/09/18 01:36:14;;;;;;;8.80;5.60;;;18.30;99.90;;;;;;5107683;28;20038;-70
2023/09/18 01:38:41;;;;;;;8.70;5.63;;;18.10;99.90;;;;;;5107831;28;20027;-70
2023/09/18 01:41:07;;;;;;;9.13;5.72;;;18.10;99.90;;;;;;5107300;28;20102;-70
2023/09/18 01:43:32;;;;;;;10.20;5.90;;;18.30;99.90;;;;;;5108791;28;20067;-69
2023/09/18 01:45:58;;;;;;;15.85;6.65;;;18.30;99.90;;;;;;5108014;27;20112;-70
2023/09/18 01:48:23;;;;;;;9.15;5.45;;;18.20;99.90;;;;;;5105417;28;20063;-70
2023/09/18 01:50:49;;;;;;;10.25;6.13;;;18.10;99.90;;;;;;5107137;28;20423;-70
2023/09/18 01:53:15;;;;;;;9.77;5.90;;;17.90;99.90;;;;;;5085322;28;20041;-68
2023/09/18 01:55:41;;;;;;;11.00;5.43;;;17.80;99.90;;;;;;5106259;28;20023;-69
2023/09/18 01:58:07;;;;;;;11.73;5.75;;;17.80;99.90;;;;;;5107840;28;20036;-69
2023/09/18 02:00:33;;;;;;;12.00;6.72;;;17.90;99.90;;;;;;5106916;28;20486;-70
2023/09/18 02:02:59;;;;;;;11.35;6.00;;;17.90;99.90;;;;;;5107669;28;20463;-69
2023/09/18 02:05:25;;;;;;;12.45;6.22;;;18.00;99.90;;;;;;5104228;28;20024;-69
2023/09/18 02:07:51;;;;;;;9.65;5.60;;;18.20;99.90;;;;;;5104948;28;20023;-69
2023/09/18 02:10:16;;;;;;;12.20;6.10;;;18.40;99.90;;;;;;5101475;28;20066;-69
2023/09/18 02:12:42;;;;;;;9.55;5.88;;;18.40;99.90;;;;;;5104794;28;20399;-69
2023/09/18 02:15:10;;;;;;;10.38;5.75;;;18.50;99.90;;;;;;5102619;28;20039;-69
2023/09/18 02:17:35;;;;;;;11.57;6.05;;;18.40;99.90;;;;;;5107397;28;20368;-70
2023/09/18 02:20:04;;;;;;;10.35;5.65;;;18.10;99.90;;;;;;5103476;28;20038;-69
2023/09/18 02:22:32;;;;;;;10.57;6.15;;;17.80;99.90;;;;;;5103507;28;20027;-69
2023/09/18 02:24:58;;;;;;;13.18;5.85;;;17.50;99.90;;;;;;5106707;28;20020;-69
2023/09/18 02:27:24;;;;;;;9.00;5.93;;;17.50;99.90;;;;;;5105043;28;20076;-69
2023/09/18 02:29:50;;;;;;;8.90;6.10;;;17.60;99.90;;;;;;5108231;28;20038;-69
2023/09/18 02:32:16;;;;;;;8.85;5.70;;;17.50;99.90;;;;;;5102605;28;20541;-69
2023/09/18 02:34:41;;;;;;;10.70;6.05;;;17.50;99.90;;;;;;5089861;28;20031;-69
2023/09/18 02:37:07;;;;;;;9.60;6.10;;;17.60;99.90;;;;;;5107102;28;20106;-69
2023/09/18 02:39:33;;;;;;;15.27;6.25;;;17.60;99.90;;;;;;5107923;28;20047;-69
2023/09/18 02:41:58;;;;;;;11.13;6.28;;;17.60;99.90;;;;;;5104851;28;20035;-69
2023/09/18 02:44:24;;;;;;;10.38;5.93;;;17.70;99.90;;;;;;5105295;28;20027;-70
2023/09/18 02:46:49;;;;;;;8.48;5.38;;;17.80;99.90;;;;;;5107648;28;20403;-69
2023/09/18 02:49:15;;;;;;;11.45;6.03;;;17.80;99.90;;;;;;5104823;28;20617;-69
2023/09/18 02:51:40;;;;;;;9.98;5.85;;;17.80;99.90;;;;;;5103110;28;20035;-69
2023/09/18 02:54:06;;;;;;;8.43;5.68;;;17.80;99.90;;;;;;5101684;28;20796;-69
2023/09/18 02:56:32;;;;;;;8.90;5.95;;;17.90;99.90;;;;;;5101988;28;20061;-69
2023/09/18 02:58:57;;;;;;;9.65;5.70;;;17.80;99.90;;;;;;5096560;28;20123;-69
2023/09/18 03:01:23;;;;;;;13.38;5.65;;;17.80;99.90;;;;;;5103705;28;20093;-69
2023/09/18 03:03:49;;;;;;;14.07;6.40;;;17.80;99.90;;;;;;5103011;28;20063;-69
2023/09/18 03:06:14;;;;;;;10.40;5.60;;;17.80;99.90;;;;;;5101361;28;20023;-68
2023/09/18 03:08:40;;;;;;;10.68;5.32;;;17.80;99.90;;;;;;5103952;28;20027;-70
2023/09/18 03:11:12;;;;;;;10.65;5.53;;;17.90;99.90;;;;;;5106571;28;20023;-70
2023/09/18 03:13:46;;;;;;;13.40;5.85;;;18.00;99.90;;;;;;5107274;28;20040;-70
2023/09/18 03:16:12;;;;;;;10.27;5.57;;;18.20;99.90;;;;;;5102737;28;20032;-70
2023/09/18 03:18:37;;;;;;;10.10;5.97;;;18.20;99.90;;;;;;5106620;28;20035;-70
2023/09/18 03:21:04;;;;;;;8.77;5.07;;;18.20;99.90;;;;;;5107606;28;20046;-70
2023/09/18 03:23:29;;;;;;;12.38;5.85;;;18.30;99.90;;;;;;5108272;28;20027;-69
2023/09/18 03:25:55;;;;;;;11.55;5.45;;;18.30;99.90;;;;;;5107521;28;20376;-69
2023/09/18 03:28:21;;;;;;;11.57;5.50;;;18.40;99.90;;;;;;5114554;27;20025;-70
2023/09/18 03:30:46;;;;;;;11.85;5.70;;;18.30;99.90;;;;;;5111087;28;20106;-70
2023/09/18 03:33:12;;;;;;;12.48;5.55;;;18.30;99.90;;;;;;5110663;28;20467;-70
2023/09/18 03:35:58;;;;;;;10.10;5.65;;;18.30;99.90;;;;;;5111281;28;20028;-70
2023/09/18 03:38:24;;;;;;;13.52;5.60;;;18.40;99.90;;;;;;5090995;28;20048;-70
2023/09/18 03:40:50;;;;;;;11.52;5.80;;;18.40;99.90;;;;;;5093278;28;20040;-69
2023/09/18 03:43:16;;;;;;;11.07;5.90;;;18.50;99.90;;;;;;5111155;28;20089;-69
2023/09/18 03:45:41;;;;;;;10.25;5.93;;;18.30;99.90;;;;;;5115580;27;20124;-70
2023/09/18 03:48:07;;;;;;;9.18;5.40;;;18.20;99.90;;;;;;5108787;28;20056;-70
2023/09/18 03:50:33;;;;;;;12.55;5.78;;;18.10;99.90;;;;;;5108996;28;20086;-69
2023/09/18 03:52:58;;;;;;;13.10;5.57;;;17.90;99.90;;;;;;5111986;28;20049;-70
2023/09/18 03:55:24;;;;;;;10.48;5.25;;;17.80;99.90;;;;;;5108057;28;20112;-70
2023/09/18 03:57:51;;;;;;;9.25;5.38;;;17.80;99.90;;;;;;5088402;28;20032;-74
2023/09/18 04:00:17;;;;;;;10.52;5.60;;;17.80;99.90;;;;;;5106926;28;20532;-74
2023/09/18 04:02:43;;;;;;;10.55;5.18;;;17.70;99.90;;;;;;5110217;28;20122;-73
2023/09/18 04:05:09;;;;;;;9.85;4.65;;;17.70;99.90;;;;;;5092412;28;20036;-73
2023/09/18 04:07:35;;;;;;;14.15;5.50;;;17.60;99.90;;;;;;5107159;28;20083;-71
2023/09/18 04:10:01;;;;;;;11.60;6.20;;;17.60;99.90;;;;;;5111556;28;20487;-73
2023/09/18 04:12:26;;;;;;;13.70;5.50;;;17.50;99.90;;;;;;5109569;28;20039;-71
2023/09/18 04:14:52;;;;;;;9.15;5.45;;;17.30;99.90;;;;;;5111374;28;20079;-72
2023/09/18 04:17:18;;;;;;;11.23;5.57;;;17.40;99.90;;;;;;5104309;28;20032;-73
2023/09/18 04:19:44;;;;;;;14.27;5.22;;;17.40;99.90;;;;;;5111192;28;20036;-73
2023/09/18 04:22:10;;;;;;;16.52;5.25;;;17.30;99.90;;;;;;5105021;28;20023;-72
2023/09/18 04:24:35;;;;;;;11.98;5.88;;;17.30;99.90;;;;;;5109388;28;20024;-74
2023/09/18 04:27:01;;;;;;;14.15;5.05;;;17.10;99.90;;;;;;5110297;28;20028;-72
2023/09/18 04:29:27;;;;;;;14.00;5.05;;;17.10;99.90;;;;;;5109551;28;20135;-73
2023/09/18 04:31:54;;;;;;;10.32;5.15;;;17.40;99.90;;;;;;5108220;28;20065;-72
2023/09/18 04:34:20;;;;;;;15.48;5.03;;;17.80;99.90;;;;;;5110278;28;20043;-72
2023/09/18 04:36:46;;;;;;;10.57;4.88;;;18.00;99.90;;;;;;5111096;28;20042;-75
2023/09/18 04:39:12;;;;;;;16.02;4.90;;;18.20;99.90;;;;;;5108396;28;20039;-76
2023/09/18 04:41:38;;;;;;;12.02;5.15;;;18.30;99.90;;;;;;5107984;28;20038;-71
2023/09/18 04:44:05;;;;;;;11.18;4.68;;;18.40;99.90;;;;;;5105224;28;20035;-74
2023/09/18 04:46:30;;;;;;;7.53;4.97;;;18.40;99.90;;;;;;5107564;28;20567;-76
2023/09/18 04:48:56;;;;;;;11.15;4.90;;;18.20;99.90;;;;;;5109730;28;20066;-77
2023/09/18 04:51:22;;;;;;;11.32;5.00;;;18.20;99.90;;;;;;5104148;28;20107;-74
2023/09/18 04:53:47;;;;;;;12.00;4.80;;;18.20;99.90;;;;;;5099233;28;20032;-72
2023/09/18 04:56:13;;;;;;;9.80;4.72;;;18.20;99.90;;;;;;5109894;28;20110;-70
2023/09/18 04:58:39;;;;;;;13.73;5.03;;;18.20;99.90;;;;;;5109388;28;20027;-72
2023/09/18 05:01:05;;;;;;;10.43;4.88;;;18.10;99.90;;;;;;5107839;28;20027;-74
2023/09/18 05:03:33;;;;;;;22.50;4.93;;;18.00;99.90;;;;;;5108769;28;20051;-76
2023/09/18 05:05:59;;;;;;;11.45;4.35;;;18.00;99.90;;;;;;5108530;28;20024;-74
2023/09/18 05:08:25;;;;;;;14.88;5.03;;;18.10;99.90;;;;;;5106304;28;20421;-75
2023/09/18 05:10:50;;;;;;;12.57;4.65;;;18.20;99.90;;;;;;5109065;28;20106;-72
2023/09/18 05:13:16;;;;;;;7.32;4.55;;;18.20;99.90;;;;;;5109172;28;20040;-70
2023/09/18 05:15:42;;;;;;;9.82;4.50;;;18.30;99.90;;;;;;5110020;28;20409;-73
2023/09/18 05:18:08;;;;;;;11.93;5.15;;;18.30;99.90;;;;;;5109206;28;20140;-76
2023/09/18 05:20:34;;;;;;;11.60;4.43;;;18.10;99.90;;;;;;5106995;28;20121;-74
2023/09/18 05:23:02;;;;;;;11.30;4.32;;;18.10;99.90;;;;;;5109843;28;20081;-73
2023/09/18 05:25:32;;;;;;;9.30;4.18;;;18.10;99.90;;;;;;5109317;28;20392;-72
2023/09/18 05:27:59;;;;;;;10.75;4.25;;;18.20;99.90;;;;;;5108737;28;20069;-73
2023/09/18 05:30:30;;;;;;;12.40;4.93;;;18.30;99.90;;;;;;5105398;28;20063;-72
2023/09/18 05:32:57;;;;;;;9.75;4.30;;;18.30;99.90;;;;;;5109923;28;20028;-73
2023/09/18 05:35:23;;;;;;;9.27;4.50;;;18.20;99.90;;;;;;5106660;28;20027;-71
2023/09/18 05:37:51;;;;;;;9.50;4.00;;;18.20;99.90;;;;;;5106855;28;20429;-74
2023/09/18 05:40:17;;;;;;;11.55;4.82;;;18.20;99.90;;;;;;5107832;28;20031;-72
2023/09/18 05:42:44;;;;;;;16.30;4.65;;;18.20;99.90;;;;;;5105646;28;20034;-73
2023/09/18 05:45:11;;;;;;;9.73;4.50;;;18.30;99.90;;;;;;5102336;28;20031;-73
2023/09/18 05:47:38;;;;;;;11.32;4.72;;;18.40;99.90;;;;;;5105859;28;20130;-73
2023/09/18 05:50:06;;;;;;;10.85;5.22;;;18.40;99.90;;;;;;5107549;28;20056;-74
2023/09/18 05:52:33;;;;;;;11.93;5.28;;;18.30;99.90;;;;;;5107593;28;20476;-70
2023/09/18 05:54:59;;;;;;;9.70;4.60;;;18.30;99.90;;;;;;5107577;28;20031;-71
2023/09/18 05:57:26;;;;;;;15.50;5.45;;;18.30;99.90;;;;;;5107487;28;20093;-76
2023/09/18 05:59:52;;;;;;;9.68;5.03;;;18.30;99.90;;;;;;5108373;28;20487;-73
2023/09/18 06:02:18;;;;;;;17.20;5.90;;;18.30;99.90;;;;;;5106330;28;20035;-73
2023/09/18 06:04:43;;;;;;;12.15;4.72;;;18.20;99.90;;;;;;5107913;28;20028;-73
2023/09/18 06:07:09;;;;;;;10.77;4.88;;;18.20;99.90;;;;;;5108951;28;20027;-71
2023/09/18 06:09:34;;;;;;;12.30;4.82;;;18.30;99.90;;;;;;5105145;28;20499;-72
2023/09/18 06:12:00;;;;;;;11.38;4.90;;;18.30;99.90;;;;;;5108154;28;20451;-72
2023/09/18 06:14:26;;;;;;;12.55;5.32;;;18.40;99.90;;;;;;5106826;28;20027;-72
2023/09/18 06:16:51;;;;;;;9.48;5.13;;;18.50;99.90;;;;;;5091961;28;20019;-73
2023/09/18 06:19:17;;;;;;;12.57;5.30;;;18.50;99.90;;;;;;5107150;28;21417;-71
2023/09/18 06:21:44;;;;;;;12.75;4.93;;;18.60;99.90;;;;;;5100722;28;20037;-71
2023/09/18 06:24:10;;;;;;;7.50;4.90;;;18.60;99.90;;;;;;5107698;28;20422;-76
2023/09/18 06:26:36;;;;;;;12.35;5.25;;;18.60;99.90;;;;;;5107376;28;20088;-73
2023/09/18 06:29:05;;;;;;;10.63;4.85;;;18.70;99.90;;;;;;5106680;28;20047;-71
2023/09/18 06:31:31;;;;;;;14.20;4.38;;;18.70;99.90;;;;;;5105205;28;20102;-71
2023/09/18 06:33:57;;;;;;;13.45;4.10;;;18.80;99.90;;;;;;5108954;28;20123;-71
2023/09/18 06:36:22;;;;;;;12.48;4.40;;;19.10;99.90;;;;;;5106993;28;20104;-71
2023/09/18 06:38:48;;;;;;;13.55;4.43;;;19.30;99.90;;;;;;5108811;28;20052;-72
2023/09/18 06:41:14;;;;;;;15.23;4.78;;;19.50;99.90;;;;;;5104648;28;20503;-74
2023/09/18 06:43:39;;;;;;;12.05;4.32;;;19.50;99.90;;;;;;5106070;28;20484;-75
2023/09/18 06:46:07;;;;;;;15.55;4.97;;;19.70;99.90;;;;;;5108466;28;20099;-73
2023/09/18 06:48:33;;;;;;;11.57;4.35;;;19.80;99.90;;;;;;5106378;28;20385;-73
2023/09/18 06:51:02;;;;;;;10.20;4.40;;;19.90;99.90;;;;;;5099618;28;20036;-74
2023/09/18 06:53:28;;;;;;;9.52;3.88;;;20.00;99.90;;;;;;5090716;28;20036;-72
2023/09/18 06:55:54;;;;;;;11.60;4.32;;;20.00;99.90;;;;;;5107645;28;20028;-74
2023/09/18 06:58:20;;;;;;;9.32;3.80;;;20.00;99.90;;;;;;5105289;28;20043;-75
2023/09/18 07:00:46;;;;;;;9.15;3.58;;;20.10;99.90;;;;;;5107823;28;20031;-71
2023/09/18 07:03:12;;;;;;;14.48;4.15;;;20.10;99.90;;;;;;5107530;28;20051;-72
2023/09/18 07:05:39;;;;;;;10.23;3.80;;;20.10;99.90;;;;;;5106185;28;20066;-72
2023/09/18 07:08:09;;;;;;;9.38;4.05;;;20.10;99.90;;;;;;5105162;28;20024;-71
2023/09/18 07:10:35;;;;;;;13.75;3.88;;;20.20;99.90;;;;;;5107523;28;20034;-72
2023/09/18 07:13:01;;;;;;;13.02;3.75;;;20.20;99.90;;;;;;5110351;28;20028;-72
2023/09/18 07:15:27;;;;;;;17.00;3.78;;;20.20;99.90;;;;;;5107851;28;20047;-72
2023/09/18 07:17:52;;;;;;;12.63;3.40;;;20.20;99.90;;;;;;5108936;28;20057;-70
2023/09/18 07:20:18;;;;;;;9.20;3.78;;;20.30;99.90;;;;;;5110113;28;20046;-71
2023/09/18 07:22:47;;;;;;;17.33;3.78;;;20.30;99.90;;;;;;5110636;28;20028;-74
2023/09/18 07:25:13;;;;;;;10.13;3.90;;;20.30;99.90;;;;;;5111124;28;20027;-73
2023/09/18 07:27:43;;;;;;;15.70;3.92;;;20.40;99.90;;;;;;5109056;28;20077;-75
2023/09/18 07:30:12;;;;;;;;;;;20.40;99.90;;;;;;5105909;28;20463;-75
2023/09/18 07:32:39;;;;;;;12.57;3.83;;;20.50;99.90;;;;;;5111660;28;19903;-74
2023/09/18 07:35:07;;;;;;;12.23;3.38;;;20.50;99.90;;;;;;5108376;28;20028;-72
2023/09/18 07:37:33;;;;;;;12.52;3.95;;;20.60;99.90;;;;;;5110051;28;20035;-72
2023/09/18 07:39:58;;;;;;;10.57;3.80;;;20.70;99.90;;;;;;5107310;28;20042;-73
2023/09/18 07:42:25;;;;;;;8.90;3.60;;;20.70;99.90;;;;;;5111363;28;20028;-70
2023/09/18 07:44:51;;;;;;;15.98;3.83;;;20.60;99.90;;;;;;5109772;28;20110;-69
2023/09/18 07:47:16;;;;;;;11.07;3.22;;;20.60;99.90;;;;;;5108587;28;20023;-71
2023/09/18 07:49:42;;;;;;;14.15;3.40;;;20.70;99.90;;;;;;5092891;28;20031;-72
2023/09/18 07:52:08;;;;;;;17.50;2.80;;;20.80;99.90;;;;;;5106021;28;20486;-69
2023/09/18 07:54:34;;;;;;;12.77;2.42;;;20.80;99.90;;;;;;5108765;28;20028;-71
2023/09/18 07:57:00;;;;;;;9.23;2.85;;;20.80;99.90;;;;;;5108381;28;20055;-71
2023/09/18 07:59:26;;;;;;;14.43;2.70;;;20.80;99.90;;;;;;5097982;28;20032;-71
2023/09/18 08:01:52;;;;;;;11.75;3.63;;;20.80;99.90;;;;;;5107903;28;20012;-72
2023/09/18 08:04:17;;;;;;;13.68;2.63;;;20.80;99.90;;;;;;5110538;28;20076;-72
2023/09/18 08:06:43;;;;;;;13.57;2.67;;;20.80;99.90;;;;;;5109825;28;20031;-71
2023/09/18 08:09:15;;;;;;;15.75;2.60;;;20.80;99.90;;;;;;5109265;28;20047;-72
2023/09/18 08:11:42;;;;;;;9.30;2.65;;;20.80;99.90;;;;;;5107742;28;20153;-71
2023/09/18 08:14:09;;;;;;;6.60;2.42;;;20.80;99.90;;;;;;5111236;28;20043;-71
2023/09/18 08:16:35;;;;;;;6.95;2.65;;;20.80;99.90;;;;;;5109205;28;20058;-72
2023/09/18 08:19:04;;;;;;;13.27;2.67;;;20.80;99.90;;;;;;5108828;28;20061;-72
2023/09/18 08:21:29;;;;;;;11.45;2.72;;;20.80;99.90;;;;;;5109564;28;20036;-71
2023/09/18 08:23:55;;;;;;;10.27;2.65;;;20.80;99.90;;;;;;5110351;28;20169;-71
2023/09/18 08:26:25;;;;;;;9.00;2.28;;;20.90;99.90;;;;;;5092314;28;20106;-70
2023/09/18 08:28:51;;;;;;;14.87;2.60;;;20.90;99.90;;;;;;5109523;28;20035;-70
2023/09/18 08:31:16;;;;;;;8.48;2.22;;;20.80;99.90;;;;;;5107850;28;20086;-72
2023/09/18 08:33:45;;;;;;;10.93;2.40;;;20.80;99.90;;;;;;5108787;28;20109;-71
2023/09/18 08:36:10;;;;;;;14.23;2.60;;;20.90;99.90;;;;;;5108977;28;20073;-71
2023/09/18 08:38:36;;;;;;;6.95;2.13;;;20.90;99.90;;;;;;5109109;28;20480;-71
2023/09/18 08:41:03;;;;;;;9.00;2.60;;;20.90;99.90;;;;;;5108848;28;20035;-75
2023/09/18 08:43:31;;;;;;;11.10;2.10;;;20.90;99.90;;;;;;5108528;28;20157;-70
2023/09/18 08:46:01;;;;;;;11.18;2.30;;;20.90;99.90;;;;;;5108553;28;20384;-70
2023/09/18 08:48:34;;;;;;;17.33;2.47;;;20.90;99.90;;;;;;5107593;28;20138;-71
2023/09/18 08:51:04;;;;;;;10.98;2.47;;;20.90;99.90;;;;;;5097162;28;20360;-73
2023/09/18 08:53:31;;;;;;;7.47;2.00;;;20.90;99.90;;;;;;5088663;28;20610;-72
2023/09/18 08:55:58;;;;;;;11.73;2.08;;;20.90;99.90;;;;;;5089317;28;20028;-71
2023/09/18 08:58:26;;;;;;;10.63;1.90;;;20.90;99.90;;;;;;5091017;28;20031;-70
2023/09/18 09:00:53;;;;;;;8.57;2.00;;;20.80;99.90;;;;;;5105708;28;20019;-73
2023/09/18 09:03:18;;;;;;;11.18;1.80;;;20.80;99.90;;;;;;5098156;28;20024;-72
2023/09/18 09:05:44;;;;;;;20.02;2.35;;;20.80;99.90;;;;;;5106179;28;20472;-71
2023/09/18 09:08:10;;;;;;;8.80;1.95;;;20.80;99.90;;;;;;5107117;28;20096;-73
2023/09/18 09:10:36;;;;;;;9.90;2.15;;;20.90;99.90;;;;;;5105552;28;20028;-74
2023/09/18 09:13:02;;;;;;;11.35;2.17;;;21.20;99.90;;;;;;5109208;28;20169;-72
2023/09/18 09:15:47;;;;;;;19.17;1.88;;;21.30;99.90;;;;;;5107147;28;20035;-73
2023/09/18 09:18:17;;;;;;;7.72;1.75;;;21.20;99.90;;;;;;5106909;28;20765;-71
2023/09/18 09:20:57;;;;;;;6.03;1.52;;;21.00;99.90;;;;;;5106425;28;20031;-71
2023/09/18 09:23:23;;;;;;;11.30;1.73;;;20.80;99.90;;;;;;5107454;28;20039;-73
2023/09/18 09:25:49;;;;;;;8.73;1.35;;;20.60;99.90;;;;;;5107024;28;20110;-72
2023/09/18 09:28:16;;;;;;;9.13;1.40;;;20.50;99.90;;;;;;5105519;28;20130;-72
2023/09/18 09:30:42;;;;;;;10.98;1.70;;;20.40;99.90;;;;;;5106855;28;20437;-71
2023/09/18 09:33:12;;;;;;;10.43;1.50;;;20.30;99.90;;;;;;5107908;28;20035;-74
2023/09/18 09:35:39;;;;;;;8.23;1.60;;;20.40;99.90;;;;;;5102975;28;20407;-75
2023/09/18 09:38:15;;;;;;;11.43;1.55;;;20.40;99.90;;;;;;5100436;28;20478;-72
2023/09/18 09:40:42;;;;;;;4.05;1.20;;;20.40;99.90;;;;;;5106808;28;20115;-72
2023/09/18 09:43:10;;;;;;;15.02;1.42;;;20.40;99.90;;;;;;5106158;28;20737;-71
2023/09/18 09:45:36;;;;;;;9.50;1.33;;;20.40;99.90;;;;;;5104187;28;20392;-71
2023/09/18 09:48:06;;;;;;;4.60;1.80;;;20.40;99.90;;;;;;5069367;28;1107105;-73
2023/09/18 09:50:32;;;;;;;9.27;1.60;;;20.30;99.90;;;;;;5108734;28;20043;-73
2023/09/18 09:52:58;;;;;;;6.32;1.80;;;20.40;99.90;;;;;;5107811;28;20039;-74
2023/09/18 09:55:33;;;;;;;4.75;1.40;;;20.30;99.90;;;;;;5109252;28;20115;-72
2023/09/18 09:58:04;;;;;;;5.47;1.48;;;20.40;99.90;;;;;;5108526;28;20057;-71
2023/09/18 10:00:45;;;;;;;3.90;1.30;;;20.40;99.90;;;;;;5107312;28;20032;-70
2023/09/18 10:03:14;;;;;;;9.73;1.77;;;20.20;99.90;;;;;;5101487;28;20028;-74
2023/09/18 10:05:43;;;;;;;7.78;1.35;;;20.10;99.90;;;;;;5101453;28;20032;-73
2023/09/18 10:08:16;;;;;;;4.57;1.38;;;20.00;99.90;;;;;;5107761;28;20032;-72
2023/09/18 10:10:53;;;;;;;6.18;1.30;;;19.80;99.90;;;;;;5101463;28;20031;-73
2023/09/18 10:13:27;;;;;;;9.25;1.60;;;19.80;99.90;;;;;;5104088;28;20041;-73
2023/09/18 10:15:55;;;;;;;8.80;1.77;;;19.60;99.90;;;;;;5107017;28;20115;-73
2023/09/18 10:18:31;;;;;;;14.38;1.52;;;19.40;99.90;;;;;;5105108;28;20023;-73
2023/09/18 10:21:10;;;;;;;11.55;2.20;;;19.30;99.90;;;;;;5094191;28;20043;-73
2023/09/18 10:23:48;;;;;;;13.25;1.90;;;19.20;99.90;;;;;;5106242;28;20028;-73
2023/09/18 10:26:21;;;;;;;9.13;1.90;;;19.10;99.90;;;;;;5106285;28;20399;-72
2023/09/18 10:28:48;;;;;;;10.98;1.90;;;19.00;99.90;;;;;;5107096;28;20069;-73
2023/09/18 10:31:14;;;;;;;8.07;1.88;;;18.90;99.90;;;;;;5107861;28;20112;-73
2023/09/18 10:33:41;;;;;;;21.30;2.05;;;18.80;99.90;;;;;;5107863;28;20026;-72
2023/09/18 10:36:09;;;;;;;35.97;2.30;;;18.70;99.90;;;;;;5104554;28;20035;-72
2023/09/18 10:38:37;;;;;;;37.17;3.50;;;18.60;99.90;;;;;;5101576;28;20028;-71
2023/09/18 10:41:04;;;;;;;8.25;1.80;;;18.50;99.90;;;;;;5095673;28;20024;-72
2023/09/18 10:43:30;;;;;;;5.85;1.70;;;18.30;99.90;;;;;;5104806;28;20481;-70
2023/09/18 10:45:56;;;;;;;11.50;1.50;;;18.20;99.90;;;;;;5100444;28;20019;-76
2023/09/18 10:48:23;;;;;;;7.88;1.30;;;18.10;99.90;;;;;;5105523;28;20055;-74
2023/09/18 10:50:50;;;;;;;5.35;1.45;;;18.10;99.90;;;;;;5104465;28;20059;-72
2023/09/18 10:53:17;;;;;;;5.00;1.40;;;18.00;99.90;;;;;;5107523;28;20863;-72
2023/09/18 10:55:44;;;;;;;9.07;1.10;;;17.90;99.90;;;;;;5108075;28;20135;-74
2023/09/18 10:58:10;;;;;;;3.88;0.88;;;17.80;99.90;;;;;;5105386;28;20024;-73
2023/09/18 11:00:36;;;;;;;6.55;1.48;;;17.70;99.90;;;;;;5101061;28;20032;-72
2023/09/18 11:03:19;;;;;;;5.57;0.90;;;17.70;99.90;;;;;;5107620;28;20036;-72
2023/09/18 11:06:01;;;;;;;8.20;1.10;;;17.70;99.90;;;;;;5101523;28;20097;-71
2023/09/18 11:08:27;;;;;;;6.82;1.20;;;17.60;99.90;;;;;;5107547;28;20114;-74
2023/09/18 11:11:11;;;;;;;3.72;1.23;;;17.60;99.90;;;;;;5105724;28;20313;-73
2023/09/18 11:13:41;;;;;;;7.35;1.20;;;17.60;99.90;;;;;;5106355;28;20039;-72
2023/09/18 11:16:15;;;;;;;5.80;1.00;;;17.60;99.90;;;;;;5107505;28;20024;-75
2023/09/18 11:18:41;;;;;;;7.50;1.10;;;17.60;99.90;;;;;;5104799;28;20035;-74
2023/09/18 11:21:08;;;;;;;5.80;1.17;;;17.60;99.90;;;;;;5105252;28;20028;-73
2023/09/18 11:23:38;;;;;;;4.55;1.15;;;17.60;99.90;;;;;;5107722;28;20034;-73
2023/09/18 11:26:15;;;;;;;2.85;0.98;;;17.60;99.90;;;;;;5107171;28;20032;-73
2023/09/18 11:28:42;;;;;;;3.35;1.10;;;17.60;99.90;;;;;;5107213;28;20042;-73
2023/09/18 11:31:09;;;;;;;5.60;1.20;;;17.70;99.90;;;;;;5108172;28;20039;-73
2023/09/18 11:33:45;;;;;;;3.97;1.17;;;17.70;99.90;;;;;;5106450;28;20039;-73
2023/09/18 11:36:32;;;;;;;3.70;1.15;;;17.60;99.90;;;;;;5106842;28;20032;-70
2023/09/18 11:39:03;;;;;;;3.63;1.42;;;17.60;99.90;;;;;;5087457;28;20168;-71
2023/09/18 11:41:39;;;;;;;6.38;1.23;;;17.60;99.90;;;;;;5103839;28;20516;-70
2023/09/18 11:44:13;;;;;;;5.47;1.15;;;17.50;99.90;;;;;;5107972;28;20031;-70
2023/09/18 11:46:40;;;;;;;3.90;1.20;;;17.50;99.90;;;;;;5105293;28;20020;-71
2023/09/18 11:49:11;;;;;;;5.32;1.40;;;17.50;99.90;;;;;;5103821;28;20059;-74
2023/09/18 11:51:36;;;;;;;;;;;17.60;99.90;;;;;;5103215;28;20059;-76
2023/09/18 11:54:03;;;;;;;4.43;1.23;;;17.60;99.90;;;;;;5109740;28;19939;-75
2023/09/18 11:56:30;;;;;;;3.05;1.17;;;17.50;99.90;;;;;;5111654;28;20064;-70
2023/09/18 11:58:55;;;;;;;6.82;1.35;;;17.50;99.90;;;;;;5107149;28;20027;-71
2023/09/18 12:01:24;;;;;;;4.28;1.38;;;17.60;99.90;;;;;;5107271;28;20100;-71
2023/09/18 12:03:54;;;;;;;3.45;1.40;;;17.60;99.90;;;;;;5107494;28;20039;-71
2023/09/18 12:06:21;;;;;;;5.13;1.20;;;17.60;99.90;;;;;;5110348;28;20115;-72
2023/09/18 12:08:47;;;;;;;5.47;1.10;;;17.50;99.90;;;;;;5108210;28;20043;-75
2023/09/18 12:11:16;;;;;;;3.40;1.30;;;17.60;99.90;;;;;;5090816;28;20448;-75
2023/09/18 12:13:43;;;;;;;8.70;1.20;;;17.60;99.90;;;;;;5101507;28;20057;-74
2023/09/18 12:16:09;;;;;;;5.43;1.20;;;17.60;99.90;;;;;;5108898;28;20043;-72
2023/09/18 12:18:37;;;;;;;6.15;1.38;;;17.50;99.90;;;;;;5107207;28;20127;-77
2023/09/18 12:21:06;;;;;;;1.02;0.47;;;17.40;99.90;;;;;;5108446;28;20035;-73
2023/09/18 12:23:39;;;;;;;3.78;0.73;;;17.40;99.90;;;;;;5091954;28;20122;-73
2023/09/18 12:26:09;;;;;;;1.38;0.68;;;17.50;99.90;;;;;;5108914;28;20019;-74
2023/09/18 12:28:37;;;;;;;6.05;1.00;;;17.40;99.90;;;;;;5090204;28;20042;-73
2023/09/18 12:31:07;;;;;;;2.35;0.88;;;17.50;99.90;;;;;;5109974;28;20607;-73
2023/09/18 12:33:37;;;;;;;2.17;0.88;;;17.50;99.90;;;;;;5108478;28;20047;-72
2023/09/18 12:36:04;;;;;;;4.70;1.13;;;17.60;99.90;;;;;;5105405;28;20110;-73
2023/09/18 12:38:31;;;;;;;4.60;1.27;;;17.70;99.90;;;;;;5101873;28;20031;-72
2023/09/18 12:41:05;;;;;;;3.63;1.70;;;17.90;99.90;;;;;;5106298;28;20084;-75
2023/09/18 12:43:39;;;;;;;3.45;1.42;;;17.90;99.90;;;;;;5109662;28;20050;-71